Time;durP1;ratioP1;P1;durP2;ratioP2;P2;SDS_P1;SDS_P2;PMS_P1;PMS_P2;Temp;Humidity;BMP_temperature;BMP_pressure;BME280_temperature;BME280_humidity;BME280_pressure;Samples;Min_cycle;Max_cycle;Signal;HPM_P1;HPM_P2
2023/01/19 00:02:14;;;;;;;116.00;47.55;;;;;;;3.94;100.00;98781.13;4996337;28;20061;-89
2023/01/19 00:04:40;;;;;;;109.93;45.35;;;;;;;3.96;100.00;98795.69;4996427;28;20056;-89
2023/01/19 00:07:06;;;;;;;111.72;44.95;;;;;;;4.03;100.00;98791.44;4995232;28;20110;-89
2023/01/19 00:09:37;;;;;;;108.88;45.40;;;;;;;3.98;100.00;98792.91;5010141;28;20569;-88
2023/01/19 00:12:03;;;;;;;110.20;46.13;;;;;;;3.91;100.00;98791.94;5013935;28;20030;-88
2023/01/19 00:14:29;;;;;;;115.90;47.03;;;;;;;3.76;100.00;98788.28;5014354;28;20038;-88
2023/01/19 00:16:54;;;;;;;111.63;44.67;;;;;;;3.78;100.00;98784.53;4997682;28;20599;-89
2023/01/19 00:19:20;;;;;;;121.30;47.28;;;;;;;3.76;100.00;98785.66;5013845;28;20101;-89
2023/01/19 00:21:45;;;;;;;120.70;47.90;;;;;;;3.77;100.00;98782.09;5014078;28;20116;-88
2023/01/19 00:24:12;;;;;;;115.03;46.17;;;;;;;3.76;100.00;98788.28;5014959;28;20035;-88
2023/01/19 00:26:39;;;;;;;113.63;45.70;;;;;;;3.83;100.00;98789.28;5010672;28;20484;-90
2023/01/19 00:29:08;;;;;;;109.28;45.65;;;;;;;3.94;100.00;98781.94;5010017;28;20044;-89
2023/01/19 00:31:34;;;;;;;121.30;47.10;;;;;;;3.99;100.00;98781.44;4995009;28;20034;-88
2023/01/19 00:33:59;;;;;;;113.28;46.67;;;;;;;3.79;100.00;98778.31;4994741;28;20130;-87
2023/01/19 00:36:25;;;;;;;117.50;48.42;;;;;;;3.74;100.00;98777.16;5009975;28;20038;-89
2023/01/19 00:38:50;;;;;;;118.22;48.22;;;;;;;3.70;100.00;98784.53;4994789;28;20058;-87
2023/01/19 00:41:16;;;;;;;118.47;49.53;;;;;;;3.78;100.00;98776.66;4993995;28;20034;-88
2023/01/19 00:43:42;;;;;;;112.40;45.80;;;;;;;3.95;100.00;98774.88;4994707;28;20034;-88
2023/01/19 00:46:08;;;;;;;118.88;47.65;;;;;;;3.74;100.00;98778.00;5009881;28;20030;-90
2023/01/19 00:48:33;;;;;;;119.50;49.10;;;;;;;3.58;100.00;98778.75;5009768;28;20039;-89
2023/01/19 00:50:59;;;;;;;120.65;49.08;;;;;;;3.54;100.00;98779.25;4994880;28;20093;-88
2023/01/19 00:53:25;;;;;;;117.82;47.95;;;;;;;3.67;100.00;98784.03;4995827;28;20395;-90
2023/01/19 00:55:50;;;;;;;123.50;47.28;;;;;;;3.63;100.00;98784.34;4994569;28;20503;-91
2023/01/19 00:58:16;;;;;;;121.90;47.38;;;;;;;3.60;100.00;98789.91;4995390;28;20037;-90
2023/01/19 01:04:04;;;;;;;121.78;47.58;;;;;;;3.44;100.00;98800.34;5031857;28;20042;-89
2023/01/19 01:06:29;;;;;;;119.78;46.08;;;;;;;3.61;100.00;98793.34;5017426;28;20022;-89
2023/01/19 01:08:55;;;;;;;123.68;47.20;;;;;;;3.53;100.00;98788.91;5033268;28;20030;-90
2023/01/19 01:11:20;;;;;;;126.30;48.97;;;;;;;3.42;100.00;98786.56;5003351;28;20439;-88
2023/01/19 01:13:46;;;;;;;117.85;47.40;;;;;;;3.50;100.00;98789.22;4996514;28;20038;-90
2023/01/19 01:16:15;;;;;;;120.07;46.08;;;;;;;3.49;100.00;98787.59;4994380;28;20038;-89
2023/01/19 01:18:41;;;;;;;119.20;46.67;;;;;;;3.58;100.00;98789.22;4994486;28;20058;-89
2023/01/19 01:21:08;;;;;;;112.60;45.92;;;;;;;3.61;100.00;98785.50;4994485;28;20046;-88
2023/01/19 01:23:34;;;;;;;110.28;43.55;;;;;;;3.60;100.00;98774.19;4994064;28;20033;-89
2023/01/19 01:25:59;;;;;;;108.32;45.78;;;;;;;3.49;100.00;98766.63;4994339;28;20034;-89
2023/01/19 01:28:25;;;;;;;104.57;43.15;;;;;;;3.51;100.00;98764.66;4994288;28;20034;-88
2023/01/19 01:30:55;;;;;;;99.50;42.85;;;;;;;3.57;100.00;98763.22;4994332;28;20077;-89
2023/01/19 01:33:21;;;;;;;100.47;43.63;;;;;;;3.59;100.00;98771.72;4993940;28;20037;-89
2023/01/19 01:35:48;;;;;;;102.38;42.67;;;;;;;3.54;100.00;98777.47;4993791;28;20392;-89
2023/01/19 01:38:14;;;;;;;102.03;43.40;;;;;;;3.52;100.00;98782.03;4994049;28;20164;-87
2023/01/19 01:40:40;;;;;;;102.63;41.97;;;;;;;3.51;100.00;98775.13;4993797;28;20050;-88
2023/01/19 01:43:13;;;;;;;98.68;42.13;;;;;;;3.35;100.00;98785.56;4994222;28;20038;-89
2023/01/19 01:45:40;;;;;;;97.20;41.72;;;;;;;3.28;100.00;98781.94;4995285;28;20133;-91
2023/01/19 01:48:17;;;;;;;107.25;42.90;;;;;;;3.32;100.00;98775.41;4997763;28;20046;-89
2023/01/19 01:53:38;;;;;;;96.45;41.00;;;;;;;3.33;100.00;98782.31;4997396;28;20034;-90
2023/01/19 01:56:08;;;;;;;90.82;41.05;;;;;;;3.24;100.00;98791.13;5012718;28;20038;-90
2023/01/19 01:58:36;;;;;;;85.95;37.53;;;;;;;3.18;100.00;98783.91;4997549;28;20038;-91
2023/01/19 02:03:56;;;;;;;94.03;39.30;;;;;;;3.02;100.00;98775.94;5012132;28;20041;-89
2023/01/19 02:06:22;;;;;;;89.32;37.58;;;;;;;3.03;100.00;98780.22;5012091;28;20039;-89
2023/01/19 02:14:20;;;;;;;86.72;38.15;;;;;;;2.99;100.00;98774.47;4997075;28;20072;-88
2023/01/19 02:16:46;;;;;;;90.35;38.42;;;;;;;2.89;100.00;98773.78;4995629;28;20434;-91
2023/01/19 02:19:20;;;;;;;90.68;38.97;;;;;;;2.92;100.00;98785.72;5012435;28;20041;-89
2023/01/19 02:22:24;;;;;;;94.70;40.20;;;;;;;2.92;100.00;98783.09;4996551;28;20475;-89
2023/01/19 02:24:50;;;;;;;;;;;;;;;2.83;100.00;98778.81;4921221;29;20052;-89
2023/01/19 02:27:17;;;;;;;101.70;41.28;;;;;;;2.82;100.00;98791.06;4936415;29;19941;-90
2023/01/19 02:29:43;;;;;;;110.97;43.22;;;;;;;2.90;100.00;98801.59;4936995;29;20230;-88
2023/01/19 02:32:09;;;;;;;115.43;43.70;;;;;;;2.77;100.00;98795.94;4936579;29;20129;-88
2023/01/19 02:34:35;;;;;;;116.80;43.33;;;;;;;2.78;100.00;98796.78;4967827;28;20144;-90
2023/01/19 02:37:06;;;;;;;106.97;41.38;;;;;;;2.70;100.00;98802.78;4996590;28;20053;-88
2023/01/19 02:39:37;;;;;;;104.35;40.33;;;;;;;2.66;100.00;98803.22;4996597;28;20037;-88
2023/01/19 02:42:09;;;;;;;87.97;36.13;;;;;;;2.55;100.00;98799.88;4996995;28;20039;-89
2023/01/19 02:44:36;;;;;;;95.22;37.10;;;;;;;2.68;100.00;98804.72;4996890;28;20038;-90
2023/01/19 02:47:03;;;;;;;85.65;35.20;;;;;;;2.79;100.00;98803.63;4997652;28;20022;-89
2023/01/19 02:49:29;;;;;;;84.82;35.08;;;;;;;2.66;100.00;98803.22;5000417;28;20106;-90
2023/01/19 02:51:55;;;;;;;78.70;33.17;;;;;;;2.89;100.00;98793.88;5017377;28;20029;-87
2023/01/19 02:54:44;;;;;;;78.65;32.50;;;;;;;2.71;100.00;98800.97;4996395;28;20054;-90
2023/01/19 02:57:30;;;;;;;66.72;28.73;;;;;;;2.55;100.00;98796.47;4995056;28;20318;-87
2023/01/19 03:00:14;;;;;;;68.45;29.20;;;;;;;2.52;100.00;98802.81;5011314;28;20049;-89
2023/01/19 03:02:56;;;;;;;61.30;27.73;;;;;;;2.39;100.00;98797.16;4996043;28;20046;-87
2023/01/19 03:05:46;;;;;;;64.13;27.45;;;;;;;2.38;100.00;98795.53;4996123;28;20143;-88
2023/01/19 03:08:34;;;;;;;58.67;26.25;;;;;;;2.25;100.00;98784.66;4996142;28;20045;-89
2023/01/19 03:11:03;;;;;;;58.05;25.40;;;;;;;2.26;100.00;98794.13;4998917;28;20034;-90
2023/01/19 03:13:56;;;;;;;57.88;24.67;;;;;;;2.26;100.00;98788.91;5024886;28;20073;-86
2023/01/19 03:16:50;;;;;;;57.55;26.30;;;;;;;2.14;100.00;98784.88;5000372;28;20038;-89
2023/01/19 03:19:20;;;;;;;54.70;25.33;;;;;;;2.13;100.00;98793.69;5011224;28;20042;-92
2023/01/19 03:21:51;;;;;;;56.30;24.83;;;;;;;2.05;100.00;98780.59;5011215;28;20538;-90
2023/01/19 03:24:18;;;;;;;48.60;22.10;;;;;;;1.97;100.00;98778.72;5011321;28;20045;-88
2023/01/19 03:26:48;;;;;;;47.60;20.95;;;;;;;2.05;100.00;98783.19;4995775;28;20045;-90
2023/01/19 03:29:16;;;;;;;51.67;22.48;;;;;;;1.89;100.00;98770.78;4995841;28;20113;-89
2023/01/19 03:31:45;;;;;;;44.97;22.17;;;;;;;1.81;100.00;98770.75;5010887;28;20105;-89
2023/01/19 03:34:13;;;;;;;49.42;22.25;;;;;;;1.81;100.00;98760.28;4995330;28;20427;-90
2023/01/19 03:36:43;;;;;;;43.55;20.70;;;;;;;1.74;100.00;98768.88;4995289;28;20038;-89
2023/01/19 03:39:16;;;;;;;44.05;20.48;;;;;;;1.84;100.00;98764.38;4994216;28;20306;-89
2023/01/19 03:41:46;;;;;;;46.53;20.70;;;;;;;1.70;100.00;98767.50;5010281;28;20092;-90
2023/01/19 03:44:12;;;;;;;50.38;21.75;;;;;;;1.73;100.00;98768.03;5010897;28;20062;-90
2023/01/19 03:46:39;;;;;;;43.75;19.60;;;;;;;1.66;100.00;98768.81;4995472;28;20030;-91
2023/01/19 03:49:04;;;;;;;45.30;20.30;;;;;;;1.70;100.00;98768.34;5010360;28;20043;-90
2023/01/19 03:51:35;;;;;;;42.58;19.15;;;;;;;1.70;100.00;98770.94;5010671;28;20377;-89
2023/01/19 03:54:00;;;;;;;41.50;19.02;;;;;;;1.63;100.00;98774.28;4995852;28;20165;-89
2023/01/19 03:56:26;;;;;;;42.55;18.35;;;;;;;1.62;100.00;98767.44;4995582;28;20909;-91
2023/01/19 03:58:51;;;;;;;39.53;18.88;;;;;;;1.48;100.00;98785.25;4995352;28;20037;-90
2023/01/19 04:01:21;;;;;;;34.03;17.25;;;;;;;1.41;100.00;98784.22;4995577;28;20032;-90
2023/01/19 04:03:50;;;;;;;41.55;17.67;;;;;;;1.36;100.00;98781.19;5017588;28;20042;-89
2023/01/19 04:06:17;;;;;;;34.85;15.18;;;;;;;1.49;100.00;98784.28;5006555;28;20018;-89
2023/01/19 04:08:42;;;;;;;32.45;14.57;;;;;;;1.41;100.00;98786.81;5032825;28;20026;-88
2023/01/19 04:11:08;;;;;;;27.20;13.27;;;;;;;1.43;100.00;98782.25;5029666;28;20045;-89
2023/01/19 04:13:35;;;;;;;29.40;13.93;;;;;;;1.49;100.00;98781.66;4993821;28;20110;-88
2023/01/19 04:16:01;;;;;;;25.83;13.40;;;;;;;1.50;100.00;98785.94;4994915;28;20030;-89
2023/01/19 04:18:29;;;;;;;24.73;12.38;;;;;;;1.45;100.00;98788.16;4995206;28;20400;-90
2023/01/19 04:20:54;;;;;;;21.85;11.38;;;;;;;1.43;100.00;98781.44;4995168;28;20039;-89
2023/01/19 04:23:20;;;;;;;23.38;11.63;;;;;;;1.39;100.00;98782.72;5012459;28;20036;-86
2023/01/19 04:25:46;;;;;;;19.73;10.95;;;;;;;1.46;100.00;98778.53;5009568;28;20043;-87
2023/01/19 04:28:14;;;;;;;20.42;10.63;;;;;;;1.39;100.00;98780.91;5011350;28;20049;-90
2023/01/19 04:30:40;;;;;;;22.45;11.20;;;;;;;1.34;100.00;98788.38;5033294;28;20030;-88
2023/01/19 04:33:05;;;;;;;18.65;9.88;;;;;;;1.50;100.00;98790.31;5015228;28;20165;-87
2023/01/19 04:35:33;;;;;;;19.25;9.35;;;;;;;1.36;100.00;98794.25;5000126;28;20435;-89
2023/01/19 04:37:58;;;;;;;17.67;8.85;;;;;;;1.30;100.00;98797.44;4994656;28;20030;-89
2023/01/19 04:40:24;;;;;;;16.38;9.23;;;;;;;1.27;100.00;98802.97;4996387;28;20109;-89
2023/01/19 04:42:49;;;;;;;17.95;9.05;;;;;;;1.38;100.00;98794.94;4994210;28;20468;-89
2023/01/19 04:45:16;;;;;;;18.48;8.60;;;;;;;1.44;100.00;98796.13;5009464;28;20117;-89
2023/01/19 04:47:41;;;;;;;15.05;8.63;;;;;;;1.33;100.00;98797.16;4994540;28;20125;-88
2023/01/19 04:50:08;;;;;;;13.50;7.30;;;;;;;1.39;100.00;98801.00;5009374;28;20461;-88
2023/01/19 04:52:34;;;;;;;15.50;8.27;;;;;;;1.26;100.00;98797.91;4994410;28;20034;-87
2023/01/19 04:55:04;;;;;;;13.80;7.72;;;;;;;1.24;100.00;98805.84;4993909;28;20030;-86
2023/01/19 04:57:30;;;;;;;14.73;7.90;;;;;;;1.34;100.00;98806.63;4992942;28;20038;-88
2023/01/19 04:59:56;;;;;;;14.73;7.75;;;;;;;1.23;100.00;98806.81;5009978;28;20530;-88
2023/01/19 05:02:23;;;;;;;13.75;7.80;;;;;;;1.22;100.00;98799.97;4999760;28;20469;-87
2023/01/19 05:04:48;;;;;;;12.18;7.00;;;;;;;1.18;100.00;98798.63;5024492;28;20057;-87
2023/01/19 05:07:14;;;;;;;10.73;6.53;;;;;;;1.21;100.00;98795.72;5007484;28;20034;-90
2023/01/19 05:09:58;;;;;;;12.25;6.78;;;;;;;1.23;100.00;98793.78;5007768;28;20042;-90
2023/01/19 05:12:24;;;;;;;11.23;6.72;;;;;;;1.26;100.00;98798.69;5000307;28;20057;-86
2023/01/19 05:14:49;;;;;;;10.85;6.30;;;;;;;1.27;100.00;98812.56;4994774;28;20027;-88
2023/01/19 05:17:15;;;;;;;11.10;5.93;;;;;;;1.44;100.00;98804.78;4994376;28;20030;-87
2023/01/19 05:19:41;;;;;;;9.40;5.82;;;;;;;1.39;100.00;98811.44;5011075;28;20034;-86
2023/01/19 05:22:06;;;;;;;9.75;5.55;;;;;;;1.43;100.00;98817.97;5014070;28;20062;-86
2023/01/19 05:24:32;;;;;;;10.60;6.22;;;;;;;1.42;100.00;98825.00;5013859;28;20030;-86
2023/01/19 05:26:58;;;;;;;8.95;5.70;;;;;;;1.53;100.00;98837.00;5014893;28;20065;-86
2023/01/19 05:29:23;;;;;;;8.48;5.22;;;;;;;1.59;100.00;98840.84;5010679;28;20061;-86
2023/01/19 05:31:49;;;;;;;10.00;5.18;;;;;;;1.76;100.00;98840.03;5010736;28;20368;-87
2023/01/19 05:34:14;;;;;;;8.30;5.35;;;;;;;1.85;100.00;98847.00;5007193;28;20069;-86
2023/01/19 05:36:41;;;;;;;9.30;5.10;;;;;;;1.69;100.00;98844.22;5007614;28;20062;-87
2023/01/19 05:39:07;;;;;;;6.55;4.10;;;;;;;1.72;100.00;98849.16;5000390;28;20101;-86
2023/01/19 05:41:32;;;;;;;7.28;4.60;;;;;;;1.56;100.00;98853.22;5000701;28;20030;-90
2023/01/19 05:43:58;;;;;;;8.50;4.85;;;;;;;1.49;100.00;98849.53;5001501;28;20038;-87
2023/01/19 05:46:23;;;;;;;5.90;4.15;;;;;;;1.51;100.00;98847.63;4999594;28;20038;-87
2023/01/19 05:48:49;;;;;;;8.45;5.05;;;;;;;1.61;100.00;98854.56;5010595;28;20098;-85
2023/01/19 05:51:15;;;;;;;8.02;4.97;;;;;;;1.49;100.00;98849.53;5008795;28;20034;-85
2023/01/19 05:53:40;;;;;;;8.45;4.88;;;;;;;1.65;100.00;98848.09;5003672;28;20035;-87
2023/01/19 05:56:08;;;;;;;7.72;4.82;;;;;;;1.54;100.00;98852.53;4984948;28;20070;-87
2023/01/19 05:58:34;;;;;;;8.07;5.13;;;;;;;1.48;100.00;98858.34;4984486;28;20058;-89
2023/01/19 06:01:05;;;;;;;8.02;5.15;;;;;;;1.44;100.00;98862.22;4976023;28;20069;-85
2023/01/19 06:03:32;;;;;;;9.50;4.68;;;;;;;1.41;100.00;98861.69;4992767;28;20046;-85
2023/01/19 06:05:58;;;;;;;7.97;4.90;;;;;;;1.44;100.00;98862.22;4976915;28;20101;-85
2023/01/19 06:08:23;;;;;;;7.72;4.93;;;;;;;1.36;100.00;98864.72;4977223;28;20055;-86
2023/01/19 06:10:49;;;;;;;8.40;4.93;;;;;;;1.37;100.00;98866.38;4978566;28;20045;-89
2023/01/19 06:13:16;;;;;;;8.70;5.50;;;;;;;1.37;100.00;98871.59;4979178;28;20357;-84
2023/01/19 06:15:42;;;;;;;9.27;6.05;;;;;;;1.42;100.00;98874.59;4980052;28;20042;-87
2023/01/19 06:18:08;;;;;;;9.35;5.88;;;;;;;1.58;100.00;98876.56;4998324;28;20046;-88
2023/01/19 06:20:34;;;;;;;9.20;5.47;;;;;;;1.46;100.00;98886.38;4995388;28;20026;-86
2023/01/19 06:23:00;;;;;;;9.25;5.43;;;;;;;1.39;100.00;98887.91;4979756;28;20031;-85
2023/01/19 06:25:25;;;;;;;10.48;6.45;;;;;;;1.40;100.00;98892.16;4995668;28;20058;-88
2023/01/19 06:27:51;;;;;;;11.30;6.95;;;;;;;1.39;100.00;98890.53;4982324;28;20416;-88
2023/01/19 06:30:17;;;;;;;11.35;7.43;;;;;;;1.48;100.00;98896.69;4997553;28;20047;-89
2023/01/19 06:32:42;;;;;;;10.90;7.13;;;;;;;1.44;100.00;98885.72;4996948;28;20492;-89
2023/01/19 06:35:08;;;;;;;10.18;6.22;;;;;;;1.47;100.00;98901.06;4982174;28;20090;-89
2023/01/19 06:37:35;;;;;;;10.25;6.22;;;;;;;1.59;100.00;98906.13;4980339;28;20066;-90
2023/01/19 06:40:00;;;;;;;10.23;6.93;;;;;;;1.58;100.00;98913.13;4980985;28;20042;-91
2023/01/19 06:42:26;;;;;;;9.77;6.47;;;;;;;1.62;100.00;98916.28;4981150;28;20033;-90
2023/01/19 06:44:51;;;;;;;12.13;6.90;;;;;;;1.57;100.00;98916.69;4978453;28;20034;-91
2023/01/19 06:47:17;;;;;;;10.93;5.78;;;;;;;1.72;100.00;98922.28;4982486;28;20031;-90
2023/01/19 06:49:42;;;;;;;10.65;6.18;;;;;;;1.68;100.00;98928.75;4981976;28;20540;-87
2023/01/19 06:52:10;;;;;;;9.57;5.80;;;;;;;1.63;100.00;98925.72;4987004;28;20074;-89
2023/01/19 06:54:37;;;;;;;11.73;6.00;;;;;;;1.64;100.00;98920.38;4998856;28;20051;-90
2023/01/19 06:57:03;;;;;;;10.65;5.90;;;;;;;1.64;100.00;98930.81;4979315;28;20023;-88
2023/01/19 06:59:28;;;;;;;9.15;5.78;;;;;;;1.65;100.00;98929.03;4982019;28;20039;-89
2023/01/19 07:01:55;;;;;;;7.82;5.40;;;;;;;1.69;100.00;98938.22;4994660;28;20043;-89
2023/01/19 07:04:21;;;;;;;7.57;5.57;;;;;;;1.56;100.00;98936.75;5008048;28;20037;-89
2023/01/19 07:06:46;;;;;;;8.95;5.32;;;;;;;1.66;100.00;98943.75;4999930;28;20060;-88
2023/01/19 07:09:13;;;;;;;7.97;5.38;;;;;;;1.73;100.00;98947.41;4999263;28;20033;-89
2023/01/19 07:11:42;;;;;;;8.40;5.47;;;;;;;1.69;100.00;98948.69;4998557;28;20026;-89
2023/01/19 07:14:08;;;;;;;10.05;5.63;;;;;;;1.63;100.00;98955.28;5009274;28;20392;-91
2023/01/19 07:16:33;;;;;;;6.80;4.72;;;;;;;1.65;100.00;98962.97;4985836;28;20037;-88
2023/01/19 07:19:00;;;;;;;8.10;4.90;;;;;;;1.67;100.00;98966.25;4985285;28;20130;-90
2023/01/19 07:21:25;;;;;;;6.93;4.40;;;;;;;1.72;100.00;98969.28;5028922;28;20058;-87
2023/01/19 07:23:51;;;;;;;6.72;4.35;;;;;;;1.59;100.00;98963.56;4991133;28;20471;-89
2023/01/19 07:26:24;;;;;;;7.20;5.05;;;;;;;1.64;100.00;98971.78;4987620;28;20204;-90
2023/01/19 07:28:51;;;;;;;;;;;;;;;1.66;100.00;98977.69;4982982;28;20082;-88
2023/01/19 07:31:17;;;;;;;9.50;5.63;;;;;;;1.62;100.00;98977.16;4986533;28;20362;-90
2023/01/19 07:33:43;;;;;;;11.32;6.25;;;;;;;1.67;100.00;98974.09;4996633;28;20034;-92
2023/01/19 07:36:10;;;;;;;12.90;7.03;;;;;;;1.72;100.00;98990.16;5012149;28;20113;-89
2023/01/19 07:38:38;;;;;;;10.45;6.18;;;;;;;1.76;100.00;98981.06;4995975;28;20046;-89
2023/01/19 07:41:06;;;;;;;12.18;6.75;;;;;;;1.62;100.00;98984.97;4997590;28;20030;-91
2023/01/19 07:43:33;;;;;;;13.57;6.43;;;;;;;1.65;100.00;98978.66;4997769;28;20031;-90
2023/01/19 07:46:02;;;;;;;11.82;6.63;;;;;;;1.63;100.00;98985.78;5013221;28;20026;-89
2023/01/19 07:48:28;;;;;;;13.45;6.97;;;;;;;1.66;100.00;98998.56;5013553;28;20120;-89
2023/01/19 07:51:17;;;;;;;13.35;7.55;;;;;;;1.61;100.00;98992.94;5004797;28;20030;-89
2023/01/19 07:53:52;;;;;;;10.57;6.90;;;;;;;1.66;100.00;98998.56;5020848;28;20042;-91
2023/01/19 07:56:18;;;;;;;15.30;7.93;;;;;;;1.67;100.00;99019.31;5025337;28;20042;-88
2023/01/19 07:58:43;;;;;;;14.70;8.68;;;;;;;1.64;100.00;99019.59;5015168;28;20130;-87
2023/01/19 08:01:13;;;;;;;17.45;8.80;;;;;;;1.62;100.00;99023.31;5000055;28;20038;-91
2023/01/19 08:03:39;;;;;;;17.90;9.38;;;;;;;1.69;100.00;99021.78;4997419;28;20038;-88
2023/01/19 08:06:06;;;;;;;20.45;9.73;;;;;;;1.70;100.00;99034.69;4965353;28;20069;-89
2023/01/19 08:08:32;;;;;;;16.38;9.18;;;;;;;1.80;100.00;99045.09;5010014;28;20121;-90
2023/01/19 08:10:58;;;;;;;18.40;9.30;;;;;;;1.83;100.00;99047.41;4996503;28;20045;-91
2023/01/19 08:13:25;;;;;;;22.92;9.63;;;;;;;1.83;100.00;99040.41;4997256;28;20046;-90
2023/01/19 08:15:52;;;;;;;18.75;9.30;;;;;;;1.90;100.00;99048.50;4996257;28;20388;-89
2023/01/19 08:18:21;;;;;;;18.85;10.00;;;;;;;2.00;100.00;99054.50;4999774;28;20065;-88
2023/01/19 08:20:47;;;;;;;22.38;9.80;;;;;;;1.87;100.00;99065.28;4994830;28;20038;-90
2023/01/19 08:23:12;;;;;;;19.00;10.65;;;;;;;1.88;100.00;99066.13;4997480;28;20092;-90
2023/01/19 08:25:41;;;;;;;22.92;10.85;;;;;;;1.91;100.00;99073.66;5005163;28;20034;-91
2023/01/19 08:28:08;;;;;;;25.00;11.32;;;;;;;1.95;100.00;99080.25;5011496;28;20039;-89
2023/01/19 08:30:34;;;;;;;22.45;10.98;;;;;;;1.95;100.00;99085.47;5023717;28;20030;-89
2023/01/19 08:33:03;;;;;;;23.35;11.50;;;;;;;1.90;100.00;99091.13;4986418;28;20040;-89
2023/01/19 08:35:37;;;;;;;20.00;10.68;;;;;;;2.05;100.00;99094.13;5019749;28;20034;-88
2023/01/19 08:38:06;;;;;;;20.42;11.25;;;;;;;1.96;100.00;99093.16;5004878;28;20034;-89
2023/01/19 08:40:34;;;;;;;20.20;10.57;;;;;;;1.94;100.00;99099.50;5005390;28;20093;-87
2023/01/19 08:43:05;;;;;;;20.35;10.77;;;;;;;1.97;100.00;99104.44;5003140;28;20066;-89
2023/01/19 08:45:31;;;;;;;18.08;10.25;;;;;;;1.94;100.00;99109.94;4998458;28;20045;-88
2023/01/19 08:47:58;;;;;;;19.42;9.90;;;;;;;1.95;100.00;99107.22;5013195;28;20030;-90
2023/01/19 08:50:27;;;;;;;19.15;10.13;;;;;;;2.00;100.00;99115.44;5011821;28;20069;-90
2023/01/19 08:52:57;;;;;;;17.33;9.48;;;;;;;1.91;100.00;99115.47;4999939;28;20151;-89
2023/01/19 08:55:23;;;;;;;18.13;9.82;;;;;;;2.01;100.00;99121.47;5024164;28;20038;-89
2023/01/19 08:57:53;;;;;;;17.20;9.30;;;;;;;2.05;100.00;99117.63;5006146;28;20113;-89
2023/01/19 09:00:21;;;;;;;15.88;9.48;;;;;;;2.08;100.00;99118.16;5003462;28;20039;-91
2023/01/19 09:02:50;;;;;;;17.25;9.63;;;;;;;2.09;100.00;99125.03;5003172;28;20031;-91
2023/01/19 09:05:16;;;;;;;17.98;9.32;;;;;;;1.95;100.00;99132.50;4991270;28;20038;-91
2023/01/19 09:07:44;;;;;;;17.23;9.68;;;;;;;2.04;100.00;99132.47;4998340;28;20039;-86
2023/01/19 09:10:10;;;;;;;18.73;9.25;;;;;;;2.00;100.00;99128.50;4984600;28;20042;-89
2023/01/19 09:12:43;;;;;;;19.90;10.88;;;;;;;1.97;100.00;99130.56;4986899;28;20126;-91
2023/01/19 09:15:16;;;;;;;16.88;9.30;;;;;;;1.89;100.00;99143.53;4991019;28;20400;-91
2023/01/19 09:17:43;;;;;;;18.77;10.15;;;;;;;1.91;100.00;99146.81;5021052;23;20047;-92
2023/01/19 09:20:30;;;;;;;18.17;10.07;;;;;;;1.90;100.00;99151.22;4980157;28;20098;-90
2023/01/19 09:22:57;;;;;;;18.90;9.70;;;;;;;2.06;100.00;99171.50;4967872;29;20023;-90
2023/01/19 09:25:23;;;;;;;16.65;9.20;;;;;;;2.05;100.00;99169.88;4966385;28;20031;-90
2023/01/19 09:27:50;;;;;;;14.82;8.82;;;;;;;2.06;100.00;99187.19;4966389;28;20082;-90
2023/01/19 09:30:18;;;;;;;18.20;8.85;;;;;;;1.96;100.00;99183.78;4965013;28;20040;-86
2023/01/19 09:32:44;;;;;;;16.58;8.90;;;;;;;1.96;100.00;99183.78;4962715;28;20071;-85
2023/01/19 09:35:10;;;;;;;18.67;9.35;;;;;;;1.77;100.00;99181.19;4968707;28;20073;-87
2023/01/19 09:37:42;;;;;;;16.35;9.32;;;;;;;1.74;100.00;99197.16;4972023;28;20023;-89
2023/01/19 09:40:10;;;;;;;17.35;8.43;;;;;;;1.70;100.00;99190.53;4974355;28;20039;-88
2023/01/19 09:42:46;;;;;;;16.58;9.43;;;;;;;1.76;100.00;99179.53;4979103;28;20052;-91
2023/01/19 09:45:47;;;;;;;16.73;8.43;;;;;;;1.78;100.00;99188.91;4979262;28;20040;-89
2023/01/19 09:48:42;;;;;;;17.98;9.20;;;;;;;1.80;100.00;99186.97;4965524;29;20063;-90
2023/01/19 09:51:20;;;;;;;19.25;9.50;;;;;;;1.77;100.00;99186.41;4981910;28;20046;-88
2023/01/19 09:54:10;;;;;;;18.40;9.60;;;;;;;1.73;100.00;99185.03;4976690;28;20063;-88
2023/01/19 09:56:37;;;;;;;18.58;9.50;;;;;;;1.72;100.00;99191.25;4974031;28;20039;-88
2023/01/19 09:59:42;;;;;;;19.17;10.20;;;;;;;1.79;100.00;99198.38;4984725;28;20421;-91
2023/01/19 10:02:33;;;;;;;20.20;8.82;;;;;;;1.86;100.00;99206.47;4971382;28;20110;-89
2023/01/19 10:04:59;;;;;;;19.48;10.25;;;;;;;1.86;100.00;99204.69;4988163;28;20027;-89
2023/01/19 10:07:31;;;;;;;19.33;9.90;;;;;;;1.96;100.00;99202.06;4981130;28;20027;-90
2023/01/19 10:10:22;;;;;;;20.17;10.37;;;;;;;1.83;100.00;99201.53;4987606;28;20051;-89
2023/01/19 10:13:06;;;;;;;16.75;9.35;;;;;;;1.91;100.00;99204.28;4952111;28;20094;-89
2023/01/19 10:15:55;;;;;;;17.38;9.85;;;;;;;1.97;100.00;99208.94;4959195;28;20043;-87
2023/01/19 10:18:44;;;;;;;20.35;10.48;;;;;;;1.90;100.00;99210.47;4957829;29;20481;-88
2023/01/19 10:21:13;;;;;;;20.00;10.50;;;;;;;1.96;100.00;99199.44;4974325;28;20500;-87
2023/01/19 10:23:45;;;;;;;22.48;11.10;;;;;;;2.04;100.00;99205.63;4977095;28;20035;-90
2023/01/19 10:26:35;;;;;;;18.10;10.30;;;;;;;2.01;100.00;99192.03;4977032;28;20043;-88
2023/01/19 10:29:24;;;;;;;20.58;10.50;;;;;;;2.05;100.00;99198.63;4976872;28;20423;-89
2023/01/19 10:31:53;;;;;;;19.27;10.13;;;;;;;2.23;100.00;99202.16;4957701;28;20090;-90
2023/01/19 10:34:19;;;;;;;20.08;9.60;;;;;;;2.03;100.00;99193.53;4959293;28;20041;-88
2023/01/19 10:36:48;;;;;;;16.33;10.05;;;;;;;2.09;100.00;99207.81;4979296;28;20078;-89
2023/01/19 10:39:23;;;;;;;16.55;9.15;;;;;;;2.05;100.00;99207.25;4977336;28;20061;-88
2023/01/19 10:41:51;;;;;;;19.20;9.82;;;;;;;1.98;100.00;99202.75;4976878;28;20082;-89
2023/01/19 10:44:24;;;;;;;20.15;11.13;;;;;;;1.95;100.00;99210.88;4976376;28;20039;-87
2023/01/19 10:46:53;;;;;;;18.35;10.40;;;;;;;2.08;100.00;99208.78;4977209;28;20067;-90
2023/01/19 10:49:38;;;;;;;21.48;11.23;;;;;;;2.02;100.00;99207.53;4976010;28;20118;-86
2023/01/19 10:52:06;;;;;;;20.10;10.93;;;;;;;2.09;100.00;99207.81;4976563;28;20027;-88
2023/01/19 10:54:35;;;;;;;20.88;11.88;;;;;;;2.14;100.00;99203.00;4976542;28;20042;-88
2023/01/19 10:57:08;;;;;;;19.75;10.25;;;;;;;2.20;100.00;99207.66;4977417;28;20033;-88
2023/01/19 10:59:43;;;;;;;24.08;11.35;;;;;;;2.00;100.00;99199.03;4974173;28;20085;-85
2023/01/19 11:02:27;;;;;;;20.73;11.20;;;;;;;1.92;100.00;99201.50;4976587;28;20026;-88
2023/01/19 11:04:58;;;;;;;21.33;11.00;;;;;;;1.91;100.00;99212.13;4979058;28;20054;-89
2023/01/19 11:07:29;;;;;;;21.77;11.15;;;;;;;1.71;100.00;99206.09;4979127;28;20125;-88
2023/01/19 11:10:10;;;;;;;20.77;11.68;;;;;;;1.79;100.00;99211.44;4965440;28;20043;-84
2023/01/19 11:12:39;;;;;;;19.05;11.15;;;;;;;1.76;100.00;99219.53;4976514;28;20038;-85
2023/01/19 11:15:39;;;;;;;21.13;10.65;;;;;;;1.80;100.00;99218.31;4985638;28;20030;-85
2023/01/19 11:18:06;;;;;;;21.13;11.20;;;;;;;1.79;100.00;99227.09;4978840;28;20054;-86
2023/01/19 11:20:49;;;;;;;19.63;10.45;;;;;;;1.67;100.00;99222.16;4970681;28;20098;-89
2023/01/19 11:23:26;;;;;;;22.50;11.23;;;;;;;1.59;100.00;99230.69;4980464;28;20112;-89
2023/01/19 11:28:53;;;;;;;27.50;12.27;;;;;;;1.65;100.00;99231.94;4708577;26;20047;-90
2023/01/19 11:31:28;;;;;;;19.75;10.65;;;;;;;1.83;100.00;99235.47;4999939;28;20049;-89
2023/01/19 11:33:56;;;;;;;21.83;11.77;;;;;;;1.81;100.00;99238.25;4998260;28;20118;-91
2023/01/19 11:36:41;;;;;;;19.45;11.20;;;;;;;1.74;100.00;99234.53;4981485;28;20037;-90
2023/01/19 11:39:25;;;;;;;19.10;10.13;;;;;;;1.77;100.00;99241.25;4996424;28;20035;-91
2023/01/19 11:42:01;;;;;;;21.98;10.88;;;;;;;1.76;100.00;99240.44;4998434;22;20130;-91
2023/01/19 11:48:29;;;;;;;21.13;10.57;;;;;;;1.62;100.00;99240.03;4897143;29;20510;-90
2023/01/19 11:50:58;;;;;;;22.40;11.48;;;;;;;1.71;100.00;99239.22;4881132;29;20755;-88
2023/01/19 11:53:28;;;;;;;21.80;11.57;;;;;;;1.67;100.00;99237.81;4895769;29;20068;-85
2023/01/19 11:56:08;;;;;;;21.10;10.77;;;;;;;1.55;100.00;99243.19;4898400;29;20046;-90